• Join FlightAware (Why Join?)
  • Login
  • US Flag 
10:26PM EDT


 

Airport Tracker/Info


-or-


 

Live Flight TrackerFlight Track Log ✈ GJS3706 ✈ 26-Jun-2013 ✈ KALB - KORD

Flight Track Log - Related Links

Times and Time Zones

All times are in EDT time to prevent confusion due to time zone crossing. See the GJS3706 flight status page for this flight to view local times or setup timezone preferences in your user account.

Time Position Orientation Groundspeed Altitude Reporting Facility
EDT Latitude Longitude Course Direction KTS MPH feet Rate Location/Type
01:09PM 42.7714 -73.8092 276° West 158 182 1,300  Level Boston Center
01:11PM 42.8294 -73.8442 336° Northwest 204 235 3,900 2,160 Climbing Boston Center
01:12PM 42.9773 -73.9773 324° Northwest  Level FlightAware Approximate
01:12PM 42.8725 -73.8992 317° Northwest 234 269 6,000  Level Boston Center
01:13PM 43.0099 -74.0886 279° West  Level FlightAware Approximate
01:13PM 42.9217 -73.9683 314° West 244 281 8,600  Level Boston Center
01:14PM 43.0214 -74.2157 276° West  Level FlightAware Approximate
01:14PM 42.9750 -74.0350 318° Northwest 251 289 11,300  Level Boston Center
01:15PM 43.0305 -74.3432 276° West  Level FlightAware Approximate
01:15PM 42.9983 -74.1350 288° West 258 297 13,000  Level Boston Center
01:16PM 43.0069 -74.2600 275° West 313 360 14,700 1,680 Climbing Boston Center
01:17PM 43.0175 -74.3825 277° West 338 389 16,400 1,680 Climbing Boston Center
01:18PM 43.0317 -74.5164 278° West 355 409 18,400 1,800 Climbing Boston Center
01:19PM 43.0436 -74.6644 276° West 355 409 20,400 1,860 Climbing Boston Center
01:20PM 43.0533 -74.7956 276° West 355 409 22,200 1,620 Climbing Boston Center
01:21PM 43.0653 -74.9297 277° West 355 409 23,700 1,320 Climbing Boston Center
01:22PM 43.0744 -75.0667 275° West 355 409 24,900 1,200 Climbing Boston Center
01:23PM 43.0878 -75.2178 277° West 360 414 26,100 1,200 Climbing Boston Center
01:24PM 43.0986 -75.3633 276° West 371 427 27,300 1,080 Climbing Boston Center
01:25PM 43.1081 -75.4806 276° West 381 438 28,300 1,200 Climbing Boston Center
01:26PM 43.1200 -75.6517 276° West 387 445 29,800 1,320 Climbing Boston Center
01:27PM 43.1325 -75.7975 277° West 387 445 31,000 1,200 Climbing Boston Center
01:28PM 43.1344 -75.9372 271° West 387 445 32,200 1,080 Climbing Boston Center
01:29PM 43.1342 -76.0794 270° West 387 445 33,200 960 Climbing Boston Center
01:30PM 43.1167 -76.2833 263° West 370 426 34,900 840 Climbing Toronto Center
01:31PM 43.1333 -76.4122 280° West 366 421 35,400 540 Climbing Cleveland Center
01:32PM 43.1361 -76.5542 272° West 366 421 35,900 600 Climbing Cleveland Center
01:33PM 43.1353 -76.7108 270° West 371 427 36,600 600 Climbing Cleveland Center
01:34PM 43.1339 -76.8589 269° West 376 433 37,200 600 Climbing Cleveland Center
01:35PM 43.1342 -77.0011 270° West 381 438 37,900 360 Climbing Cleveland Center
01:36PM 43.1325 -77.1464 269° West 381 438 38,000  Climbing Cleveland Center
01:37PM 43.1325 -77.2917 270° West 387 445 38,000  Level Cleveland Center
01:38PM 43.1303 -77.4397 269° West 387 445 38,000  Level Cleveland Center
01:39PM 43.1300 -77.5875 270° West 387 445 38,000  Level Cleveland Center
01:40PM 43.1297 -77.7356 270° West 387 445 38,000  Level Cleveland Center
01:41PM 43.1269 -77.8836 269° West 387 445 38,000  Level Cleveland Center
01:42PM 43.1239 -78.0317 268° West 392 451 38,000  Level Cleveland Center
01:43PM 43.1211 -78.1856 269° West 398 458 38,000  Level Cleveland Center
01:44PM 43.1200 -78.3392 269° West 403 464 38,000  Level Cleveland Center
01:45PM 43.1167 -78.4928 268° West 403 464 38,000 -300 Level Cleveland Center
01:46PM 43.1131 -78.6464 268° West 403 464 37,500 -780 Descending Cleveland Center
01:47PM 43.1094 -78.8058 268° West 408 470 36,500 -780 Descending Cleveland Center
01:48PM 43.1075 -78.9653 269° West 414 476 36,000 -300 Descending Cleveland Center
01:49PM 43.1033 -79.1244 268° West 424 488 36,000  Level Cleveland Center
01:50PM 43.1031 -79.2808 270° West 424 488 36,000  Level Cleveland Center
01:51PM 43.0986 -79.4375 268° West 424 488 36,000  Level Cleveland Center
01:52PM 43.0936 -79.5967 268° West 424 488 36,000  Level Cleveland Center
01:53PM 43.0833 -79.7667 265° West 420 483 36,000  Level Toronto Center
01:54PM 43.0667 -79.9333 262° West 430 495 36,000  Level Toronto Center
01:55PM 43.0667 -80.0833 270° West 440 506 36,000  Level Toronto Center
01:56PM 43.0667 -80.2500 270° West 440 506 36,000  Level Toronto Center
01:57PM 43.0500 -80.4333 263° West 440 506 36,000  Level Toronto Center
01:58PM 43.0500 -80.6167 270° West 450 518 36,000  Level Toronto Center
01:59PM 43.0500 -80.7667 270° West 440 506 36,000  Level Toronto Center
02:00PM 43.0333 -80.9333 262° West 440 506 36,000  Level Toronto Center
02:01PM 43.0167 -81.1000 262° West 440 506 36,000  Level Toronto Center
02:02PM 43.0167 -81.2667 270° West 440 506 36,000  Level Toronto Center
02:03PM 43.0167 -81.4333 270° West 440 506 36,000  Level Toronto Center
02:04PM 43.0167 -81.6000 270° West 440 506 36,000  Level Toronto Center
02:05PM 43.0167 -81.7833 270° West 440 506 36,000  Level Toronto Center
02:06PM 43.0000 -81.9333 261° West 440 506 36,000  Level Toronto Center
02:07PM 43.0000 -82.1000 270° West 440 506 36,000  Level Toronto Center
02:08PM 43.0000 -82.2833 270° West 440 506 36,000  Level Toronto Center
02:09PM 43.0000 -82.4333 270° West 440 506 36,000 -120 Level Toronto Center
02:10PM 43.0000 -82.6167 270° West 440 506 35,800 -480 Descending Toronto Center
02:11PM 43.0031 -82.7208 272° West 444 511 35,300 -1,020 Descending Cleveland Center
02:12PM 42.9978 -82.8911 268° West 444 511 34,200 -960 Descending Cleveland Center
02:13PM 42.9919 -83.0639 267° West 449 517 33,500 -900 Descending Cleveland Center
02:14PM 42.9839 -83.2425 267° West 461 531 32,500 -780 Descending Cleveland Center
02:15PM 42.9797 -83.4183 268° West 461 531 32,000 -300 Descending Cleveland Center
02:16PM 42.9733 -83.5939 267° West 466 536 32,000  Level Cleveland Center
02:17PM 42.9642 -83.7750 266° West 471 542 32,000  Level Cleveland Center
02:18PM 42.9467 -83.9500 262° West 477 549 32,000  Level Cleveland Center
02:19PM 42.9244 -84.1678 262° West 476 548 32,000  Level Chicago Center
02:20PM 42.9083 -84.3378 263° West 460 529 32,000  Level Chicago Center
02:21PM 42.8917 -84.5083 262° West 457 526 32,000  Level Chicago Center
02:22PM 42.8739 -84.6811 262° West 459 528 32,000  Level Chicago Center
02:23PM 42.8556 -84.8547 262° West 461 531 32,000  Level Chicago Center
02:25PM 42.8353 -85.0575 262° West 454 522 32,000 -600 Level Chicago Center
02:26PM 42.8164 -85.2286 261° West 455 524 30,800 -1,260 Descending Chicago Center
02:27PM 42.8008 -85.3686 261° West 465 535 29,400 -1,680 Descending Chicago Center
02:28PM 42.7750 -85.5703 260° West 452 520 27,400 -1,860 Descending Chicago Center
02:29PM 42.7433 -85.7375 256° West 453 521 25,600 -1,740 Descending Chicago Center
02:30PM 42.7131 -85.9031 256° West 449 517 23,900 -1,680 Descending Chicago Center
02:31PM 42.6842 -86.0647 256° West 440 506 22,200 -1,680 Descending Chicago Center
02:32PM 42.6567 -86.2197 256° West 424 488 20,500 -1,740 Descending Chicago Center
02:33PM 42.6219 -86.3939 255° West 401 461 18,700 -1,680 Descending Chicago Center
02:34PM 42.5950 -86.5375 256° West 393 452 17,100 -1,500 Descending Chicago Center
02:35PM 42.5697 -86.6753 256° West 380 437 15,700 -1,380 Descending Chicago Center
02:36PM 42.5397 -86.8100 253° West 377 434 14,300 -1,320 Descending Chicago Center
02:37PM 42.5039 -86.9406 250° West 373 429 13,000 -1,260 Descending Chicago Center
02:38PM 42.4700 -87.0581 249° West 342 394 11,700 -1,260 Descending Chicago Center
02:39PM 42.4344 -87.1869 250° West 310 357 10,500 -1,140 Descending Chicago Center
02:40PM 42.4056 -87.2878 249° West 296 341 9,400 -960 Descending Chicago Center
02:41PM 42.3758 -87.3822 247° West 276 318 8,600 -960 Descending Chicago Center
02:42PM 42.3314 -87.4722 236° Southwest 265 305 7,500 -780 Descending Chicago Center
02:43PM 42.2939 -87.5517 237° Southwest 274 315 7,000 -720 Descending Chicago Center
02:44PM 42.2278 -87.6397 225° Southwest 285 328 6,100 -960 Descending Chicago Center
02:45PM 42.1719 -87.7061 221° Southwest 270 311 5,100 -1,080 Descending Chicago Center
02:46PM 42.1183 -87.7622 218° Southwest 249 287 3,900 -1,200 Descending Chicago Center